Owen, Kentucky
Current Conditions -  °F | °C
As of 8:53 PM on Thursday 20 Nov 2014 (Local Time) from KFFT Reporting Station
Clear Clear  
Wind Chill: 21°   Ceiling: Unl
Heat Index: 26°   Visibility: 10mi
Dew Point: 15°   Wind: 5mph
Humidity: 63%   Direction: 280°W
Pressure: 30.24"   Gusts: NA
Location:  38.5364°N, 84.5918°W
Report Text: KFFT 210153Z AUTO 28004KT 10SM CLR M03/M09 A3024 RMK AO2 SLP249 T10331094
Loading
Personal Weather Stations






























Interactive Weather Map New forecast layout! Learn more

10-Day Weather Forecast

Advertisements
Track Severe Weather on mobile